Time;durP1;ratioP1;P1;durP2;ratioP2;P2;SDS_P1;SDS_P2;PMS_P1;PMS_P2;Temp;Humidity;BMP_temperature;BMP_pressure;BME280_temperature;BME280_humidity;BME280_pressure;Samples;Min_cycle;Max_cycle;Signal;HPM_P1;HPM_P2
2023/03/14 09:42:40;;;;;;;;;;;;;;;;;;5067407;28;6925;-64
2023/03/14 09:45:11;;;;;;;;;;;;;;;;;;5051948;28;7126;-64
2023/03/14 09:47:37;;;;;;;;;;;;;;;;;;5035670;28;6967;-65
2023/03/14 09:53:09;;;;;;;;;;;;;;;;;;5031716;28;6978;-65
2023/03/14 09:55:36;;;;;;;;;;;;;;;;;;5031697;28;6818;-65
2023/03/14 10:01:05;;;;;;;;;;;;;;;;;;5012029;28;6691;-65
2023/03/14 10:03:51;;;;;;;;;;;;;;;;;;5012128;28;7128;-65
2023/03/14 10:06:16;;;;;;;;;;;;;;;;;;5015909;28;7576;-65
2023/03/14 10:08:44;;;;;;;;;;;;;;;;;;5031712;28;7150;-65
2023/03/14 10:11:15;;;;;;;;;;;;;;;;;;5031488;28;7058;-65
2023/03/14 10:13:50;;;;;;;;;;;;;;;;;;5031363;28;7376;-64
2023/03/14 10:16:15;;;;;;;;;;;;;;;;;;5030929;28;7598;-65
2023/03/14 10:22:01;;;;;;;;;;;;;;;;;;5017174;28;7175;-65
2023/03/14 10:24:31;;;;;;;;;;;;;;;;;;5011625;28;7039;-65
2023/03/14 10:27:32;;;;;;;;;;;;;;;;;;5016804;28;7062;-65
2023/03/14 10:30:03;;;;;;;;;;;;;;;;;;5019927;28;7254;-65
2023/03/14 10:32:33;;;;;;;;;;;;;;;;;;5012036;28;6869;-64
2023/03/14 10:41:16;;;;;;;;;;;;;;;;;;5021775;28;7049;-65
2023/03/14 10:43:41;;;;;;;;;;;;;;;;;;5031017;28;7032;-65
2023/03/14 10:46:20;;;;;;;;;;;;;;;;;;5030727;28;6917;-64
2023/03/14 10:48:46;;;;;;;;;;;;;;;;;;5030213;28;7395;-64
2023/03/14 11:00:23;;;;;;;;;;;;;;;;;;5035221;23;6689;-66
2023/03/14 11:03:00;;;;;;;;;;;;;;;;;;4980646;28;7224;-66
2023/03/14 11:05:44;;;;;;;;;;;;;;;;;;4997581;28;6939;-66
2023/03/14 11:11:25;;;;;;;;;;;;;;;;;;5017168;28;6954;-66
2023/03/14 11:24:22;;;;;;;;;;;;;;;;;;5035602;28;7240;-68
2023/03/14 11:29:45;;;;;;;;;;;;;;;;;;5174412;23;6752;-70
2023/03/14 11:32:38;;;;;;;;;;;;;;;;;;5056953;28;6936;-70
2023/03/14 11:38:01;;;;;;;;;;;;;;;;;;5055693;28;7090;-66
2023/03/14 11:40:28;;;;;;;;;;;;;;;;;;5056145;28;7236;-67
2023/03/14 11:42:56;;;;;;;;;;;;;;;;;;5218497;23;7798;-67
2023/03/14 11:48:43;;;;;;;;;;;;;;;;;;5195606;22;6984;-67
2023/03/14 11:51:35;;;;;;;;;;;;;;;;;;5037256;28;8580;-65
2023/03/14 11:57:11;;;;;;;;;;;;;;;;;;5055933;28;6808;-65
2023/03/14 12:02:47;;;;;;;;;;;;;;;;;;5056032;28;6933;-65
2023/03/14 12:05:27;;;;;;;;;;;;;;;;;;5055050;28;7259;-66
2023/03/14 12:07:59;;;;;;;;;;;;;;;;;;5055816;28;7382;-66
2023/03/14 12:10:24;;;;;;;;;;;;;;;;;;5056188;28;7131;-65
2023/03/14 12:12:50;;;;;;;;;;;;;;;;;;5055869;28;7266;-65
2023/03/14 12:15:23;;;;;;;;;;;;;;;;;;5055946;28;7101;-65
2023/03/14 12:21:00;;;;;;;;;;;;;;;;;;5055670;28;6979;-65
2023/03/14 12:23:27;;;;;;;;;;;;;;;;;;5055779;28;7453;-65
2023/03/14 12:26:12;;;;;;;;;;;;;;;;;;5055729;28;7217;-65
2023/03/14 12:28:41;;;;;;;;;;;;;;;;;;5055169;28;7539;-66
2023/03/14 12:31:31;;;;;;;;;;;;;;;;;;5056368;28;6950;-66
2023/03/14 12:34:09;;;;;;;;;;;;;;;;;;5055494;28;7204;-65
2023/03/14 12:42:43;;;;;;;;;;;;;;;;;;5055087;28;7032;-65
2023/03/14 12:45:15;;;;;;;;;;;;;;;;;;5055547;28;7122;-65
2023/03/14 12:47:45;;;;;;;;;;;;;;;;;;5055145;28;7334;-66
2023/03/14 12:53:50;;;;;;;;;;;;;;;;;;5055118;28;6922;-65
2023/03/14 12:56:25;;;;;;;;;;;;;;;;;;5055564;28;7126;-65
2023/03/14 12:59:19;;;;;;;;;;;;;;;;;;5054997;28;7411;-65
2023/03/14 13:04:54;;;;;;;;;;;;;;;;;;4935909;29;7109;-65
2023/03/14 13:07:38;;;;;;;;;;;;;;;;;;4932628;29;7016;-65
2023/03/14 13:10:21;;;;;;;;;;;;;;;;;;4935157;29;7316;-65
2023/03/14 13:13:05;;;;;;;;;;;;;;;;;;4935638;29;7066;-65
2023/03/14 13:15:38;;;;;;;;;;;;;;;;;;4935163;29;6944;-65
2023/03/14 13:18:36;;;;;;;;;;;;;;;;;;4935255;29;8188;-65
2023/03/14 13:24:06;;;;;;;;;;;;;;;;;;4897550;29;6690;-66
2023/03/14 13:26:34;;;;;;;;;;;;;;;;;;4897323;29;7254;-65
2023/03/14 13:28:59;;;;;;;;;;;;;;;;;;4898215;29;7167;-65
2023/03/14 13:31:48;;;;;;;;;;;;;;;;;;4897588;29;7025;-65
2023/03/14 13:34:14;;;;;;;;;;;;;;;;;;4896287;29;6963;-65
2023/03/14 13:36:58;;;;;;;;;;;;;;;;;;4897121;29;7114;-65
2023/03/14 13:39:26;;;;;;;;;;;;;;;;;;4897290;29;7164;-65
2023/03/14 13:41:52;;;;;;;;;;;;;;;;;;4941939;28;7149;-65
2023/03/14 13:47:23;;;;;;;;;;;;;;;;;;4973579;28;7052;-65
2023/03/14 13:55:54;;;;;;;;;;;;;;;;;;4989070;28;6933;-65
2023/03/14 14:01:34;;;;;;;;;;;;;;;;;;5054438;28;6936;-65
2023/03/14 14:04:08;;;;;;;;;;;;;;;;;;5055167;28;7031;-65
2023/03/14 14:06:46;;;;;;;;;;;;;;;;;;5054326;28;6963;-65
2023/03/14 14:09:26;;;;;;;;;;;;;;;;;;5055149;28;7178;-65
2023/03/14 14:11:51;;;;;;;;;;;;;;;;;;5053771;28;7370;-64
2023/03/14 14:14:25;;;;;;;;;;;;;;;;;;5054237;28;7275;-65
2023/03/14 14:17:01;;;;;;;;;;;;;;;;;;5053985;28;7070;-65
2023/03/14 14:19:30;;;;;;;;;;;;;;;;;;5050934;28;7965;-65
2023/03/14 14:22:14;;;;;;;;;;;;;;;;;;5054126;28;7047;-65
2023/03/14 14:24:44;;;;;;;;;;;;;;;;;;5054266;28;6881;-65
2023/03/14 14:27:20;;;;;;;;;;;;;;;;;;5054268;28;7301;-65
2023/03/14 14:30:09;;;;;;;;;;;;;;;;;;5057768;28;7198;-65
2023/03/14 14:32:36;;;;;;;;;;;;;;;;;;5057405;28;7040;-65
2023/03/14 14:35:07;;;;;;;;;;;;;;;;;;5057704;28;7383;-65
2023/03/14 14:37:40;;;;;;;;;;;;;;;;;;5057126;28;7053;-65
2023/03/14 14:43:28;;;;;;;;;;;;;;;;;;5057483;28;6861;-65
2023/03/14 14:45:54;;;;;;;;;;;;;;;;;;5057698;28;7201;-65
2023/03/14 14:48:33;;;;;;;;;;;;;;;;;;5057126;28;6942;-65
2023/03/14 14:51:03;;;;;;;;;;;;;;;;;;5016737;28;7136;-65
2023/03/14 14:53:48;;;;;;;;;;;;;;;;;;5016281;28;6936;-65
2023/03/14 14:56:25;;;;;;;;;;;;;;;;;;5017008;28;7262;-64
2023/03/14 15:02:17;;;;;;;;;;;;;;;;;;5013480;28;6749;-64
2023/03/14 15:04:43;;;;;;;;;;;;;;;;;;5016786;28;7399;-64
2023/03/14 15:07:42;;;;;;;;;;;;;;;;;;5004178;28;7148;-63
2023/03/14 15:10:16;;;;;;;;;;;;;;;;;;5011910;28;7305;-63
2023/03/14 15:12:48;;;;;;;;;;;;;;;;;;5016493;28;7193;-64
2023/03/14 15:15:14;;;;;;;;;;;;;;;;;;5006994;28;7387;-63
2023/03/14 15:20:44;;;;;;;;;;;;;;;;;;5005753;28;6728;-64
2023/03/14 15:26:44;;;;;;;;;;;;;;;;;;5017065;28;7062;-68
2023/03/14 15:29:12;;;;;;;;;;;;;;;;;;5016039;28;7251;-68
2023/03/14 15:38:22;;;;;;;;;;;;;;;;;;5016644;28;6700;-68
2023/03/14 15:40:49;;;;;;;;;;;;;;;;;;5016854;28;7194;-67
2023/03/14 15:43:20;;;;;;;;;;;;;;;;;;5016497;28;6942;-68
2023/03/14 15:45:45;;;;;;;;;;;;;;;;;;5016399;28;8011;-68
2023/03/14 15:48:15;;;;;;;;;;;;;;;;;;5013104;28;7017;-68
2023/03/14 15:50:41;;;;;;;;;;;;;;;;;;5043017;28;7117;-68
2023/03/14 15:53:07;;;;;;;;;;;;;;;;;;5056154;28;7125;-68
2023/03/14 15:55:33;;;;;;;;;;;;;;;;;;5056450;28;7196;-68
2023/03/14 15:58:02;;;;;;;;;;;;;;;;;;5056139;28;7090;-68
2023/03/14 16:00:28;;;;;;;;;;;;;;;;;;5056290;28;7195;-68
2023/03/14 16:02:54;;;;;;;;;;;;;;;;;;5056434;28;7051;-68
2023/03/14 16:05:34;;;;;;;;;;;;;;;;;;5056118;28;6902;-68
2023/03/14 16:08:01;;;;;;;;;;;;;;;;;;5056021;28;7208;-68
2023/03/14 16:13:29;;;;;;;;;;;;;;;;;;5055757;28;6931;-68
2023/03/14 16:16:00;;;;;;;;;;;;;;;;;;5056628;28;7010;-68
2023/03/14 16:21:28;;;;;;;;;;;;;;;;;;5055658;28;6945;-68
2023/03/14 16:23:54;;;;;;;;;;;;;;;;;;5056857;28;7179;-68
2023/03/14 16:26:19;;;;;;;;;;;;;;;;;;5056063;28;7163;-68
2023/03/14 16:28:46;;;;;;;;;;;;;;;;;;5055618;28;7375;-68
2023/03/14 16:31:41;;;;;;;;;;;;;;;;;;5055462;28;7122;-68
2023/03/14 16:34:08;;;;;;;;;;;;;;;;;;5055656;28;7033;-68
2023/03/14 16:36:33;;;;;;;;;;;;;;;;;;5055130;28;7262;-68
2023/03/14 16:38:59;;;;;;;;;;;;;;;;;;5056128;28;6920;-68
2023/03/14 16:41:28;;;;;;;;;;;;;;;;;;5055937;28;7031;-68
2023/03/14 16:46:56;;;;;;;;;;;;;;;;;;5054652;28;6698;-68
2023/03/14 16:49:22;;;;;;;;;;;;;;;;;;5052560;28;6919;-68
2023/03/14 16:51:55;;;;;;;;;;;;;;;;;;5054201;28;7227;-68
2023/03/14 16:54:20;;;;;;;;;;;;;;;;;;5054919;28;6959;-68
2023/03/14 16:56:52;;;;;;;;;;;;;;;;;;5055465;28;7284;-68
2023/03/14 17:02:21;;;;;;;;;;;;;;;;;;5054687;28;6920;-67
2023/03/14 17:04:46;;;;;;;;;;;;;;;;;;5054955;28;7170;-67
2023/03/14 17:16:24;;;;;;;;;;;;;;;;;;5054526;28;6923;-67
2023/03/14 17:19:02;;;;;;;;;;;;;;;;;;5054780;28;7207;-67
2023/03/14 17:21:28;;;;;;;;;;;;;;;;;;5054599;28;7335;-67
2023/03/14 17:23:53;;;;;;;;;;;;;;;;;;5055293;28;7112;-67
2023/03/14 17:29:27;;;;;;;;;;;;;;;;;;5034620;28;6739;-67
2023/03/14 17:31:53;;;;;;;;;;;;;;;;;;5034492;28;7304;-67
2023/03/14 17:34:18;;;;;;;;;;;;;;;;;;5034411;28;7202;-67
2023/03/14 17:46:05;;;;;;;;;;;;;;;;;;5034081;28;6923;-67
2023/03/14 17:51:29;;;;;;;;;;;;;;;;;;4994874;28;7631;-67
2023/03/14 17:53:54;;;;;;;;;;;;;;;;;;4995141;28;7013;-67
2023/03/14 17:59:22;;;;;;;;;;;;;;;;;;4994890;28;6687;-67
2023/03/14 18:04:52;;;;;;;;;;;;;;;;;;4999041;28;6681;-67
2023/03/14 18:07:31;;;;;;;;;;;;;;;;;;4998629;28;7037;-67
2023/03/14 18:09:57;;;;;;;;;;;;;;;;;;4998964;28;7149;-67
2023/03/14 18:15:25;;;;;;;;;;;;;;;;;;4998807;28;7383;-67
2023/03/14 18:17:51;;;;;;;;;;;;;;;;;;4999638;28;6928;-67
2023/03/14 18:20:23;;;;;;;;;;;;;;;;;;4998798;28;7208;-67
2023/03/14 18:22:49;;;;;;;;;;;;;;;;;;4998647;28;7603;-67
2023/03/14 18:25:14;;;;;;;;;;;;;;;;;;4998253;28;7627;-67
2023/03/14 18:27:50;;;;;;;;;;;;;;;;;;4998189;28;7930;-67
2023/03/14 18:30:15;;;;;;;;;;;;;;;;;;4998645;28;7452;-67
2023/03/14 18:32:41;;;;;;;;;;;;;;;;;;4998215;28;7218;-67
2023/03/14 18:38:09;;;;;;;;;;;;;;;;;;4998215;28;7376;-67
2023/03/14 18:40:35;;;;;;;;;;;;;;;;;;4999263;28;7287;-67
2023/03/14 18:43:28;;;;;;;;;;;;;;;;;;4998392;28;7104;-67
2023/03/14 18:45:56;;;;;;;;;;;;;;;;;;4998319;28;7385;-67
2023/03/14 18:48:23;;;;;;;;;;;;;;;;;;4998450;28;7160;-67
2023/03/14 18:50:50;;;;;;;;;;;;;;;;;;5024854;28;7461;-67
2023/03/14 18:53:43;;;;;;;;;;;;;;;;;;5046872;28;7318;-67
2023/03/14 18:59:11;;;;;;;;;;;;;;;;;;5057347;28;7452;-68
2023/03/14 19:01:37;;;;;;;;;;;;;;;;;;5057329;28;7044;-67
2023/03/14 19:04:04;;;;;;;;;;;;;;;;;;5057238;28;6933;-67
2023/03/14 19:06:31;;;;;;;;;;;;;;;;;;5057070;28;7032;-67
2023/03/14 19:08:58;;;;;;;;;;;;;;;;;;5056982;28;7566;-67
2023/03/14 19:14:35;;;;;;;;;;;;;;;;;;5056461;28;6683;-67
2023/03/14 19:17:01;;;;;;;;;;;;;;;;;;5056920;28;7033;-67
2023/03/14 19:22:57;;;;;;;;;;;;;;;;;;5056638;28;6926;-67
2023/03/14 19:25:23;;;;;;;;;;;;;;;;;;5057741;28;8219;-67
2023/03/14 19:27:48;;;;;;;;;;;;;;;;;;5056804;28;7283;-67
2023/03/14 19:30:21;;;;;;;;;;;;;;;;;;5056791;28;7267;-67
2023/03/14 19:32:47;;;;;;;;;;;;;;;;;;5056648;28;7040;-67
2023/03/14 19:35:14;;;;;;;;;;;;;;;;;;5056612;28;7100;-67
2023/03/14 19:37:40;;;;;;;;;;;;;;;;;;5056485;28;7033;-67
2023/03/14 19:40:23;;;;;;;;;;;;;;;;;;5055282;28;8470;-67
2023/03/14 19:42:49;;;;;;;;;;;;;;;;;;5056581;28;7142;-67
2023/03/14 19:45:15;;;;;;;;;;;;;;;;;;5056436;28;7377;-67
2023/03/14 19:47:41;;;;;;;;;;;;;;;;;;5056437;28;7427;-67
2023/03/14 19:50:11;;;;;;;;;;;;;;;;;;5050398;28;6952;-67
2023/03/14 19:52:38;;;;;;;;;;;;;;;;;;5056368;28;7234;-68
2023/03/14 19:55:05;;;;;;;;;;;;;;;;;;5056312;28;7392;-68
2023/03/14 19:57:32;;;;;;;;;;;;;;;;;;5057286;28;7363;-68
2023/03/14 19:59:58;;;;;;;;;;;;;;;;;;5056110;28;7046;-68
2023/03/14 20:02:24;;;;;;;;;;;;;;;;;;5056181;28;6913;-68
2023/03/14 20:07:53;;;;;;;;;;;;;;;;;;5055660;28;6684;-68
2023/03/14 20:13:21;;;;;;;;;;;;;;;;;;5055778;28;6921;-68
2023/03/14 20:15:46;;;;;;;;;;;;;;;;;;5055878;28;7170;-68
2023/03/14 20:18:11;;;;;;;;;;;;;;;;;;5055828;28;6995;-68
2023/03/14 20:20:39;;;;;;;;;;;;;;;;;;5054979;28;7919;-68
2023/03/14 20:23:05;;;;;;;;;;;;;;;;;;5055631;28;6994;-68
2023/03/14 20:25:30;;;;;;;;;;;;;;;;;;5054738;28;7059;-68
2023/03/14 20:27:56;;;;;;;;;;;;;;;;;;5055425;28;7163;-68
2023/03/14 20:30:31;;;;;;;;;;;;;;;;;;5055558;28;7576;-68
2023/03/14 20:32:56;;;;;;;;;;;;;;;;;;5055453;28;7153;-68
2023/03/14 20:44:30;;;;;;;;;;;;;;;;;;5055066;28;6676;-68
2023/03/14 20:50:00;;;;;;;;;;;;;;;;;;5053177;28;6692;-68
2023/03/14 20:52:26;;;;;;;;;;;;;;;;;;5054794;28;7219;-68
2023/03/14 20:55:16;;;;;;;;;;;;;;;;;;5055176;28;7007;-68
2023/03/14 21:00:54;;;;;;;;;;;;;;;;;;5054632;28;6942;-68
2023/03/14 21:03:21;;;;;;;;;;;;;;;;;;5054894;28;7175;-68
2023/03/14 21:05:47;;;;;;;;;;;;;;;;;;5088478;22;7417;-67
2023/03/14 21:08:20;;;;;;;;;;;;;;;;;;5043334;28;7214;-67
2023/03/14 21:10:46;;;;;;;;;;;;;;;;;;5054330;28;7369;-67
2023/03/14 21:13:24;;;;;;;;;;;;;;;;;;5054027;28;7154;-67
2023/03/14 21:15:50;;;;;;;;;;;;;;;;;;5054707;28;6930;-67
2023/03/14 21:18:45;;;;;;;;;;;;;;;;;;5054428;28;6866;-67
2023/03/14 21:21:10;;;;;;;;;;;;;;;;;;5055369;28;7187;-67
2023/03/14 21:23:38;;;;;;;;;;;;;;;;;;5054393;28;7157;-67
2023/03/14 21:26:04;;;;;;;;;;;;;;;;;;5055044;28;6939;-67
2023/03/14 21:28:43;;;;;;;;;;;;;;;;;;5054810;28;7142;-67
2023/03/14 21:31:12;;;;;;;;;;;;;;;;;;5054562;28;6941;-67
2023/03/14 21:33:38;;;;;;;;;;;;;;;;;;5054564;28;7144;-67
2023/03/14 21:36:07;;;;;;;;;;;;;;;;;;5047177;28;6958;-67
2023/03/14 21:38:55;;;;;;;;;;;;;;;;;;5041251;28;7069;-67
2023/03/14 21:41:22;;;;;;;;;;;;;;;;;;5054315;28;7152;-67
2023/03/14 21:43:56;;;;;;;;;;;;;;;;;;5054113;28;7863;-67
2023/03/14 21:46:24;;;;;;;;;;;;;;;;;;5053857;28;7126;-67
2023/03/14 21:51:52;;;;;;;;;;;;;;;;;;5054054;28;6687;-67
2023/03/14 21:54:19;;;;;;;;;;;;;;;;;;5054440;28;7190;-67
2023/03/14 21:57:18;;;;;;;;;;;;;;;;;;5054144;28;7046;-67
2023/03/14 21:59:45;;;;;;;;;;;;;;;;;;5054193;28;6932;-67
2023/03/14 22:02:18;;;;;;;;;;;;;;;;;;5054175;28;7306;-67
2023/03/14 22:04:44;;;;;;;;;;;;;;;;;;5054501;28;7200;-67
2023/03/14 22:07:11;;;;;;;;;;;;;;;;;;5047902;28;7285;-67
2023/03/14 22:12:56;;;;;;;;;;;;;;;;;;5053843;28;6675;-67
2023/03/14 22:15:22;;;;;;;;;;;;;;;;;;5046726;28;7041;-67
2023/03/14 22:20:50;;;;;;;;;;;;;;;;;;5034007;28;6924;-67
2023/03/14 22:23:15;;;;;;;;;;;;;;;;;;5033772;28;8217;-67
2023/03/14 22:25:42;;;;;;;;;;;;;;;;;;5034147;28;7381;-67
2023/03/14 22:28:08;;;;;;;;;;;;;;;;;;5149858;22;7871;-65
2023/03/14 22:33:42;;;;;;;;;;;;;;;;;;5073732;28;6928;-66
2023/03/14 22:36:08;;;;;;;;;;;;;;;;;;5074329;28;7055;-66
2023/03/14 22:38:46;;;;;;;;;;;;;;;;;;5073904;28;7123;-66
2023/03/14 22:41:11;;;;;;;;;;;;;;;;;;5073904;28;7109;-66
2023/03/14 22:43:54;;;;;;;;;;;;;;;;;;5071372;28;7124;-67
2023/03/14 22:46:19;;;;;;;;;;;;;;;;;;5053828;28;7146;-67
2023/03/14 22:48:56;;;;;;;;;;;;;;;;;;5054846;28;7266;-67
2023/03/14 22:51:22;;;;;;;;;;;;;;;;;;5057514;28;7175;-67
2023/03/14 23:00:30;;;;;;;;;;;;;;;;;;5057169;28;6704;-67
2023/03/14 23:02:56;;;;;;;;;;;;;;;;;;5057190;28;7319;-67
2023/03/14 23:05:22;;;;;;;;;;;;;;;;;;5057300;28;7294;-67
2023/03/14 23:07:47;;;;;;;;;;;;;;;;;;5057069;28;7109;-67
2023/03/14 23:13:15;;;;;;;;;;;;;;;;;;5056842;28;6686;-67
2023/03/14 23:15:42;;;;;;;;;;;;;;;;;;5056898;28;7077;-67
2023/03/14 23:18:34;;;;;;;;;;;;;;;;;;5057455;28;7116;-67
2023/03/14 23:21:05;;;;;;;;;;;;;;;;;;5056990;28;7132;-67
2023/03/14 23:29:36;;;;;;;;;;;;;;;;;;5055940;28;6921;-66
2023/03/14 23:32:06;;;;;;;;;;;;;;;;;;5059713;28;7222;-66
2023/03/14 23:34:31;;;;;;;;;;;;;;;;;;5076518;28;7138;-66
2023/03/14 23:37:33;;;;;;;;;;;;;;;;;;5076141;28;7802;-66
2023/03/14 23:39:59;;;;;;;;;;;;;;;;;;5076468;28;7267;-66
2023/03/14 23:45:18;;;;;;;;;;;;;;;;;;5077292;28;7071;-66
2023/03/14 23:50:46;;;;;;;;;;;;;;;;;;5076240;28;6940;-66
2023/03/14 23:53:12;;;;;;;;;;;;;;;;;;5076369;28;7116;-66
2023/03/14 23:55:37;;;;;;;;;;;;;;;;;;5076420;28;7122;-66
2023/03/14 23:58:40;;;;;;;;;;;;;;;;;;5076557;28;7023;-66
